Аэропорт: Омск-Центральный. Омск

ICAO: UNOO

METAR:
2019/05/26 14:00
UNOO 261400Z 30003MPS CAVOK 13/M04 Q1022 R25/CLRD60 NOSIG RMK QFE758
METAR:
2019/05/26 12:21
TAF UNOO 261050Z 2612/2712 27006G13MPS 9999 BKN033 
      BECMG 2614/2616 24003G08MPS SCT030 
      TEMPO 2620/2701 2100 BR FU 
      TEMPO 2705/2712 21005G12MPS BKN033